sensor_id;sensor_type;location;lat;lon;timestamp;P1;durP1;ratioP1;P2;durP2;ratioP2
43990;SDS011;29654;50.784;20.604;2023-06-19T00:00:00;5.03;;;4.47;;
43990;SDS011;29654;50.784;20.604;2023-06-19T00:05:13;4.93;;;4.45;;
43990;SDS011;29654;50.784;20.604;2023-06-19T00:10:16;5.45;;;4.95;;
43990;SDS011;29654;50.784;20.604;2023-06-19T00:15:18;5.03;;;4.63;;
43990;SDS011;29654;50.784;20.604;2023-06-19T00:20:23;5.57;;;5.07;;
43990;SDS011;29654;50.784;20.604;2023-06-19T00:25:25;5.50;;;5.00;;
43990;SDS011;29654;50.784;20.604;2023-06-19T00:30:28;5.22;;;4.72;;
43990;SDS011;29654;50.784;20.604;2023-06-19T00:35:34;5.15;;;4.75;;
43990;SDS011;29654;50.784;20.604;2023-06-19T00:40:36;5.78;;;5.28;;
43990;SDS011;29654;50.784;20.604;2023-06-19T00:45:39;5.90;;;5.40;;
43990;SDS011;29654;50.784;20.604;2023-06-19T00:50:43;5.63;;;5.20;;
43990;SDS011;29654;50.784;20.604;2023-06-19T00:55:46;4.93;;;4.50;;
43990;SDS011;29654;50.784;20.604;2023-06-19T01:00:51;5.68;;;5.00;;
43990;SDS011;29654;50.784;20.604;2023-06-19T01:05:55;5.82;;;5.32;;
43990;SDS011;29654;50.784;20.604;2023-06-19T01:11:00;5.78;;;5.18;;
43990;SDS011;29654;50.784;20.604;2023-06-19T01:16:06;5.05;;;4.63;;
43990;SDS011;29654;50.784;20.604;2023-06-19T01:21:14;4.90;;;4.55;;
43990;SDS011;29654;50.784;20.604;2023-06-19T01:26:20;5.93;;;5.22;;
43990;SDS011;29654;50.784;20.604;2023-06-19T01:31:28;5.88;;;5.38;;
43990;SDS011;29654;50.784;20.604;2023-06-19T01:36:36;4.57;;;4.18;;
43990;SDS011;29654;50.784;20.604;2023-06-19T01:41:41;5.60;;;5.10;;
43990;SDS011;29654;50.784;20.604;2023-06-19T01:46:47;5.30;;;4.90;;
43990;SDS011;29654;50.784;20.604;2023-06-19T01:51:50;5.80;;;5.18;;
43990;SDS011;29654;50.784;20.604;2023-06-19T01:56:54;5.88;;;5.22;;
43990;SDS011;29654;50.784;20.604;2023-06-19T02:01:57;6.10;;;5.60;;
43990;SDS011;29654;50.784;20.604;2023-06-19T02:06:59;6.13;;;5.53;;
43990;SDS011;29654;50.784;20.604;2023-06-19T02:12:04;6.03;;;5.53;;
43990;SDS011;29654;50.784;20.604;2023-06-19T02:17:08;6.72;;;5.82;;
43990;SDS011;29654;50.784;20.604;2023-06-19T02:22:10;6.35;;;5.80;;
43990;SDS011;29654;50.784;20.604;2023-06-19T02:27:14;6.00;;;5.50;;
43990;SDS011;29654;50.784;20.604;2023-06-19T02:32:17;5.05;;;4.65;;
43990;SDS011;29654;50.784;20.604;2023-06-19T02:37:19;5.53;;;5.03;;
43990;SDS011;29654;50.784;20.604;2023-06-19T02:42:23;5.10;;;4.70;;
43990;SDS011;29654;50.784;20.604;2023-06-19T02:47:26;5.85;;;5.25;;
43990;SDS011;29654;50.784;20.604;2023-06-19T02:52:29;4.95;;;4.47;;
43990;SDS011;29654;50.784;20.604;2023-06-19T02:57:34;6.07;;;5.57;;
43990;SDS011;29654;50.784;20.604;2023-06-19T03:02:37;5.60;;;5.10;;
43990;SDS011;29654;50.784;20.604;2023-06-19T03:07:43;6.00;;;5.40;;
43990;SDS011;29654;50.784;20.604;2023-06-19T03:12:47;5.97;;;5.47;;
43990;SDS011;29654;50.784;20.604;2023-06-19T03:17:50;8.77;;;6.30;;
43990;SDS011;29654;50.784;20.604;2023-06-19T03:22:55;6.40;;;5.80;;
43990;SDS011;29654;50.784;20.604;2023-06-19T03:28:00;7.38;;;6.68;;
43990;SDS011;29654;50.784;20.604;2023-06-19T03:33:03;8.25;;;6.18;;
43990;SDS011;29654;50.784;20.604;2023-06-19T03:38:19;6.38;;;5.78;;
43990;SDS011;29654;50.784;20.604;2023-06-19T03:43:24;7.00;;;6.40;;
43990;SDS011;29654;50.784;20.604;2023-06-19T03:48:27;6.55;;;5.95;;
43990;SDS011;29654;50.784;20.604;2023-06-19T03:53:29;6.95;;;6.43;;
43990;SDS011;29654;50.784;20.604;2023-06-19T03:58:33;7.40;;;6.55;;
43990;SDS011;29654;50.784;20.604;2023-06-19T04:03:36;7.22;;;6.53;;
43990;SDS011;29654;50.784;20.604;2023-06-19T04:08:38;7.20;;;6.70;;
43990;SDS011;29654;50.784;20.604;2023-06-19T04:13:46;7.30;;;6.70;;
43990;SDS011;29654;50.784;20.604;2023-06-19T04:18:49;7.13;;;6.55;;
43990;SDS011;29654;50.784;20.604;2023-06-19T04:23:51;6.80;;;6.25;;
43990;SDS011;29654;50.784;20.604;2023-06-19T04:28:55;6.85;;;6.35;;
43990;SDS011;29654;50.784;20.604;2023-06-19T04:33:58;7.05;;;6.45;;
43990;SDS011;29654;50.784;20.604;2023-06-19T04:39:04;8.35;;;7.75;;
43990;SDS011;29654;50.784;20.604;2023-06-19T04:44:09;8.77;;;8.07;;
43990;SDS011;29654;50.784;20.604;2023-06-19T04:49:13;7.63;;;7.03;;
43990;SDS011;29654;50.784;20.604;2023-06-19T04:54:15;7.57;;;6.93;;
43990;SDS011;29654;50.784;20.604;2023-06-19T04:59:19;7.47;;;6.85;;
43990;SDS011;29654;50.784;20.604;2023-06-19T05:04:22;7.57;;;6.90;;
43990;SDS011;29654;50.784;20.604;2023-06-19T05:09:25;7.68;;;7.15;;
43990;SDS011;29654;50.784;20.604;2023-06-19T05:14:29;7.28;;;6.78;;
43990;SDS011;29654;50.784;20.604;2023-06-19T05:19:31;8.23;;;7.57;;
43990;SDS011;29654;50.784;20.604;2023-06-19T05:24:34;8.48;;;7.38;;
43990;SDS011;29654;50.784;20.604;2023-06-19T05:29:38;8.25;;;7.55;;
43990;SDS011;29654;50.784;20.604;2023-06-19T05:34:41;8.25;;;7.47;;
43990;SDS011;29654;50.784;20.604;2023-06-19T05:39:43;7.30;;;6.70;;
43990;SDS011;29654;50.784;20.604;2023-06-19T05:44:49;7.97;;;7.38;;
43990;SDS011;29654;50.784;20.604;2023-06-19T05:49:57;6.90;;;6.30;;
43990;SDS011;29654;50.784;20.604;2023-06-19T05:55:01;7.25;;;6.53;;
43990;SDS011;29654;50.784;20.604;2023-06-19T06:00:05;7.15;;;6.47;;
43990;SDS011;29654;50.784;20.604;2023-06-19T06:05:13;7.28;;;6.32;;
43990;SDS011;29654;50.784;20.604;2023-06-19T06:10:18;7.97;;;7.18;;
43990;SDS011;29654;50.784;20.604;2023-06-19T06:15:22;7.13;;;6.45;;
43990;SDS011;29654;50.784;20.604;2023-06-19T06:20:25;6.93;;;6.25;;
43990;SDS011;29654;50.784;20.604;2023-06-19T06:25:28;6.00;;;5.50;;
43990;SDS011;29654;50.784;20.604;2023-06-19T06:30:32;5.60;;;5.22;;
43990;SDS011;29654;50.784;20.604;2023-06-19T06:35:34;6.60;;;5.75;;
43990;SDS011;29654;50.784;20.604;2023-06-19T06:40:37;6.00;;;5.50;;
43990;SDS011;29654;50.784;20.604;2023-06-19T06:45:43;5.95;;;5.30;;
43990;SDS011;29654;50.784;20.604;2023-06-19T06:50:45;6.45;;;5.90;;
43990;SDS011;29654;50.784;20.604;2023-06-19T06:55:48;6.75;;;5.35;;
43990;SDS011;29654;50.784;20.604;2023-06-19T07:00:52;6.03;;;5.53;;
43990;SDS011;29654;50.784;20.604;2023-06-19T07:05:55;6.30;;;5.80;;
43990;SDS011;29654;50.784;20.604;2023-06-19T07:10:57;5.18;;;4.78;;
43990;SDS011;29654;50.784;20.604;2023-06-19T07:16:01;4.20;;;3.80;;
43990;SDS011;29654;50.784;20.604;2023-06-19T07:21:05;4.60;;;4.30;;
43990;SDS011;29654;50.784;20.604;2023-06-19T07:26:13;3.97;;;3.53;;
43990;SDS011;29654;50.784;20.604;2023-06-19T07:31:17;4.10;;;3.80;;
43990;SDS011;29654;50.784;20.604;2023-06-19T07:36:20;5.40;;;4.97;;
43990;SDS011;29654;50.784;20.604;2023-06-19T07:41:22;5.38;;;4.90;;
43990;SDS011;29654;50.784;20.604;2023-06-19T07:46:26;4.60;;;4.30;;
43990;SDS011;29654;50.784;20.604;2023-06-19T07:51:29;5.43;;;4.90;;
43990;SDS011;29654;50.784;20.604;2023-06-19T07:56:32;5.60;;;5.05;;
43990;SDS011;29654;50.784;20.604;2023-06-19T08:01:36;5.35;;;4.93;;
43990;SDS011;29654;50.784;20.604;2023-06-19T08:06:39;6.65;;;6.05;;
43990;SDS011;29654;50.784;20.604;2023-06-19T08:11:41;6.90;;;6.30;;
43990;SDS011;29654;50.784;20.604;2023-06-19T08:16:45;6.35;;;5.85;;
43990;SDS011;29654;50.784;20.604;2023-06-19T08:21:48;6.28;;;5.78;;
43990;SDS011;29654;50.784;20.604;2023-06-19T08:26:50;5.80;;;5.38;;
43990;SDS011;29654;50.784;20.604;2023-06-19T08:31:55;7.03;;;6.43;;
43990;SDS011;29654;50.784;20.604;2023-06-19T08:36:57;5.70;;;5.07;;
43990;SDS011;29654;50.784;20.604;2023-06-19T08:42:00;6.32;;;5.72;;
43990;SDS011;29654;50.784;20.604;2023-06-19T08:47:04;6.22;;;5.72;;
43990;SDS011;29654;50.784;20.604;2023-06-19T08:52:08;5.68;;;5.28;;
43990;SDS011;29654;50.784;20.604;2023-06-19T08:57:10;5.03;;;4.68;;
43990;SDS011;29654;50.784;20.604;2023-06-19T09:02:15;5.10;;;4.70;;
43990;SDS011;29654;50.784;20.604;2023-06-19T09:07:17;4.97;;;4.68;;
43990;SDS011;29654;50.784;20.604;2023-06-19T09:12:22;5.10;;;4.70;;
43990;SDS011;29654;50.784;20.604;2023-06-19T09:17:34;4.70;;;4.40;;
43990;SDS011;29654;50.784;20.604;2023-06-19T09:22:47;5.13;;;4.72;;
43990;SDS011;29654;50.784;20.604;2023-06-19T09:27:50;5.32;;;4.93;;
43990;SDS011;29654;50.784;20.604;2023-06-19T09:32:54;5.07;;;4.60;;
43990;SDS011;29654;50.784;20.604;2023-06-19T09:37:56;4.50;;;4.20;;
43990;SDS011;29654;50.784;20.604;2023-06-19T09:43:00;4.75;;;4.35;;
43990;SDS011;29654;50.784;20.604;2023-06-19T09:48:07;4.40;;;4.10;;
43990;SDS011;29654;50.784;20.604;2023-06-19T09:53:25;4.15;;;3.85;;
43990;SDS011;29654;50.784;20.604;2023-06-19T09:58:27;3.60;;;3.40;;
43990;SDS011;29654;50.784;20.604;2023-06-19T10:03:34;4.20;;;3.95;;
43990;SDS011;29654;50.784;20.604;2023-06-19T10:08:38;4.00;;;3.75;;
43990;SDS011;29654;50.784;20.604;2023-06-19T10:13:43;4.53;;;4.13;;
43990;SDS011;29654;50.784;20.604;2023-06-19T10:18:48;4.65;;;4.35;;
43990;SDS011;29654;50.784;20.604;2023-06-19T10:23:54;4.10;;;3.83;;
43990;SDS011;29654;50.784;20.604;2023-06-19T10:28:58;4.32;;;4.03;;
43990;SDS011;29654;50.784;20.604;2023-06-19T10:34:04;4.50;;;4.20;;
43990;SDS011;29654;50.784;20.604;2023-06-19T10:39:07;4.22;;;3.92;;
43990;SDS011;29654;50.784;20.604;2023-06-19T10:44:10;5.57;;;4.28;;
43990;SDS011;29654;50.784;20.604;2023-06-19T10:49:16;4.15;;;3.72;;
43990;SDS011;29654;50.784;20.604;2023-06-19T10:54:19;4.60;;;3.97;;
43990;SDS011;29654;50.784;20.604;2023-06-19T10:59:23;4.25;;;3.85;;
43990;SDS011;29654;50.784;20.604;2023-06-19T11:04:27;3.58;;;3.28;;
43990;SDS011;29654;50.784;20.604;2023-06-19T11:09:30;3.92;;;3.63;;
43990;SDS011;29654;50.784;20.604;2023-06-19T11:14:33;3.65;;;3.45;;
43990;SDS011;29654;50.784;20.604;2023-06-19T11:19:41;3.83;;;3.53;;
43990;SDS011;29654;50.784;20.604;2023-06-19T11:24:44;4.20;;;3.90;;
43990;SDS011;29654;50.784;20.604;2023-06-19T11:29:54;4.25;;;3.88;;
43990;SDS011;29654;50.784;20.604;2023-06-19T11:35:03;3.63;;;3.42;;
43990;SDS011;29654;50.784;20.604;2023-06-19T11:40:09;3.65;;;3.35;;
43990;SDS011;29654;50.784;20.604;2023-06-19T11:45:17;3.83;;;3.53;;
43990;SDS011;29654;50.784;20.604;2023-06-19T11:50:25;4.32;;;4.00;;
43990;SDS011;29654;50.784;20.604;2023-06-19T11:55:28;4.60;;;4.15;;
43990;SDS011;29654;50.784;20.604;2023-06-19T12:00:31;4.78;;;4.00;;
43990;SDS011;29654;50.784;20.604;2023-06-19T12:05:35;4.18;;;3.88;;
43990;SDS011;29654;50.784;20.604;2023-06-19T12:10:38;4.20;;;3.80;;
43990;SDS011;29654;50.784;20.604;2023-06-19T12:15:40;5.25;;;4.85;;
43990;SDS011;29654;50.784;20.604;2023-06-19T12:20:44;4.65;;;4.30;;
43990;SDS011;29654;50.784;20.604;2023-06-19T12:25:47;4.40;;;4.10;;
43990;SDS011;29654;50.784;20.604;2023-06-19T12:30:49;4.22;;;3.95;;
43990;SDS011;29654;50.784;20.604;2023-06-19T12:35:53;4.03;;;3.83;;
43990;SDS011;29654;50.784;20.604;2023-06-19T12:40:57;3.67;;;3.47;;
43990;SDS011;29654;50.784;20.604;2023-06-19T12:45:59;3.95;;;3.75;;
43990;SDS011;29654;50.784;20.604;2023-06-19T12:51:04;4.07;;;3.78;;
43990;SDS011;29654;50.784;20.604;2023-06-19T12:56:07;4.65;;;4.22;;
43990;SDS011;29654;50.784;20.604;2023-06-19T13:01:10;4.22;;;3.95;;
43990;SDS011;29654;50.784;20.604;2023-06-19T13:06:14;4.47;;;4.18;;
43990;SDS011;29654;50.784;20.604;2023-06-19T13:11:16;4.47;;;4.18;;
43990;SDS011;29654;50.784;20.604;2023-06-19T13:16:19;4.65;;;4.35;;
43990;SDS011;29654;50.784;20.604;2023-06-19T13:21:23;6.07;;;5.50;;
43990;SDS011;29654;50.784;20.604;2023-06-19T13:26:26;4.97;;;4.60;;
43990;SDS011;29654;50.784;20.604;2023-06-19T13:31:29;4.88;;;4.57;;
43990;SDS011;29654;50.784;20.604;2023-06-19T13:36:33;5.50;;;5.10;;
43990;SDS011;29654;50.784;20.604;2023-06-19T13:41:35;5.30;;;4.90;;
43990;SDS011;29654;50.784;20.604;2023-06-19T13:46:38;5.88;;;5.30;;
43990;SDS011;29654;50.784;20.604;2023-06-19T13:51:41;5.68;;;5.28;;
43990;SDS011;29654;50.784;20.604;2023-06-19T13:56:45;6.10;;;4.90;;
43990;SDS011;29654;50.784;20.604;2023-06-19T14:01:47;6.22;;;5.72;;
43990;SDS011;29654;50.784;20.604;2023-06-19T14:06:51;5.60;;;5.20;;
43990;SDS011;29654;50.784;20.604;2023-06-19T14:11:55;5.72;;;5.43;;
43990;SDS011;29654;50.784;20.604;2023-06-19T14:16:57;6.30;;;5.80;;
43990;SDS011;29654;50.784;20.604;2023-06-19T14:22:01;6.75;;;6.30;;
43990;SDS011;29654;50.784;20.604;2023-06-19T14:27:05;6.43;;;6.03;;
43990;SDS011;29654;50.784;20.604;2023-06-19T14:32:08;6.65;;;6.25;;
43990;SDS011;29654;50.784;20.604;2023-06-19T14:37:11;6.88;;;6.43;;
43990;SDS011;29654;50.784;20.604;2023-06-19T14:42:14;8.13;;;7.63;;
43990;SDS011;29654;50.784;20.604;2023-06-19T14:47:17;8.15;;;7.55;;
43990;SDS011;29654;50.784;20.604;2023-06-19T14:52:21;8.45;;;7.85;;
43990;SDS011;29654;50.784;20.604;2023-06-19T14:57:24;7.93;;;7.43;;
43990;SDS011;29654;50.784;20.604;2023-06-19T15:02:26;8.30;;;7.57;;
43990;SDS011;29654;50.784;20.604;2023-06-19T15:07:30;7.53;;;7.07;;
43990;SDS011;29654;50.784;20.604;2023-06-19T15:12:33;8.43;;;7.82;;
43990;SDS011;29654;50.784;20.604;2023-06-19T15:17:36;6.18;;;5.72;;
43990;SDS011;29654;50.784;20.604;2023-06-19T15:22:39;6.55;;;6.15;;
43990;SDS011;29654;50.784;20.604;2023-06-19T15:27:42;6.32;;;5.93;;
43990;SDS011;29654;50.784;20.604;2023-06-19T15:32:46;6.03;;;5.63;;
43990;SDS011;29654;50.784;20.604;2023-06-19T15:37:55;6.60;;;6.20;;
43990;SDS011;29654;50.784;20.604;2023-06-19T15:42:58;6.82;;;6.22;;
43990;SDS011;29654;50.784;20.604;2023-06-19T15:48:01;6.22;;;5.82;;
43990;SDS011;29654;50.784;20.604;2023-06-19T15:53:05;6.78;;;6.38;;
43990;SDS011;29654;50.784;20.604;2023-06-19T15:58:08;6.72;;;6.22;;
43990;SDS011;29654;50.784;20.604;2023-06-19T16:03:10;6.43;;;5.93;;
43990;SDS011;29654;50.784;20.604;2023-06-19T16:08:14;6.10;;;5.60;;
43990;SDS011;29654;50.784;20.604;2023-06-19T16:13:17;6.20;;;5.80;;
43990;SDS011;29654;50.784;20.604;2023-06-19T16:18:20;6.18;;;5.78;;
43990;SDS011;29654;50.784;20.604;2023-06-19T16:23:24;6.53;;;6.13;;
43990;SDS011;29654;50.784;20.604;2023-06-19T16:28:27;5.85;;;5.45;;
43990;SDS011;29654;50.784;20.604;2023-06-19T16:33:29;6.85;;;6.45;;
43990;SDS011;29654;50.784;20.604;2023-06-19T16:38:33;6.97;;;6.38;;
43990;SDS011;29654;50.784;20.604;2023-06-19T16:43:36;6.47;;;6.07;;
43990;SDS011;29654;50.784;20.604;2023-06-19T16:48:38;7.53;;;7.03;;
43990;SDS011;29654;50.784;20.604;2023-06-19T16:53:42;7.30;;;6.57;;
43990;SDS011;29654;50.784;20.604;2023-06-19T16:58:45;7.40;;;6.85;;
43990;SDS011;29654;50.784;20.604;2023-06-19T17:03:48;8.40;;;7.60;;
43990;SDS011;29654;50.784;20.604;2023-06-19T17:08:52;7.57;;;6.97;;
43990;SDS011;29654;50.784;20.604;2023-06-19T17:13:54;7.25;;;6.75;;
43990;SDS011;29654;50.784;20.604;2023-06-19T17:18:57;7.97;;;7.38;;
43990;SDS011;29654;50.784;20.604;2023-06-19T17:24:00;7.75;;;7.25;;
43990;SDS011;29654;50.784;20.604;2023-06-19T17:29:03;7.53;;;7.03;;
43990;SDS011;29654;50.784;20.604;2023-06-19T17:34:07;8.07;;;7.47;;
43990;SDS011;29654;50.784;20.604;2023-06-19T17:39:11;7.43;;;6.95;;
43990;SDS011;29654;50.784;20.604;2023-06-19T17:44:13;7.10;;;6.60;;
43990;SDS011;29654;50.784;20.604;2023-06-19T17:49:16;7.70;;;7.20;;
43990;SDS011;29654;50.784;20.604;2023-06-19T17:54:22;7.10;;;6.50;;
43990;SDS011;29654;50.784;20.604;2023-06-19T17:59:25;7.05;;;6.55;;
43990;SDS011;29654;50.784;20.604;2023-06-19T18:04:28;6.63;;;6.20;;
43990;SDS011;29654;50.784;20.604;2023-06-19T18:09:32;7.18;;;6.68;;
43990;SDS011;29654;50.784;20.604;2023-06-19T18:14:35;7.05;;;6.55;;
43990;SDS011;29654;50.784;20.604;2023-06-19T18:19:37;6.75;;;6.25;;
43990;SDS011;29654;50.784;20.604;2023-06-19T18:24:42;7.18;;;6.47;;
43990;SDS011;29654;50.784;20.604;2023-06-19T18:29:44;8.00;;;7.30;;
43990;SDS011;29654;50.784;20.604;2023-06-19T18:34:47;8.52;;;7.78;;
43990;SDS011;29654;50.784;20.604;2023-06-19T18:39:51;7.43;;;6.85;;
43990;SDS011;29654;50.784;20.604;2023-06-19T18:44:54;7.60;;;7.10;;
43990;SDS011;29654;50.784;20.604;2023-06-19T18:49:56;17.67;;;14.38;;
43990;SDS011;29654;50.784;20.604;2023-06-19T18:55:00;17.52;;;13.13;;
43990;SDS011;29654;50.784;20.604;2023-06-19T19:00:03;9.65;;;8.75;;
43990;SDS011;29654;50.784;20.604;2023-06-19T19:05:08;8.43;;;7.65;;
43990;SDS011;29654;50.784;20.604;2023-06-19T19:10:12;8.35;;;7.65;;
43990;SDS011;29654;50.784;20.604;2023-06-19T19:15:14;8.57;;;7.97;;
43990;SDS011;29654;50.784;20.604;2023-06-19T19:20:17;10.63;;;9.63;;
43990;SDS011;29654;50.784;20.604;2023-06-19T19:25:22;9.95;;;8.90;;
43990;SDS011;29654;50.784;20.604;2023-06-19T19:30:24;10.45;;;9.43;;
43990;SDS011;29654;50.784;20.604;2023-06-19T19:35:27;9.88;;;8.90;;
43990;SDS011;29654;50.784;20.604;2023-06-19T19:40:31;29.10;;;22.15;;
43990;SDS011;29654;50.784;20.604;2023-06-19T19:45:34;27.67;;;21.73;;
43990;SDS011;29654;50.784;20.604;2023-06-19T19:50:36;27.40;;;19.88;;
43990;SDS011;29654;50.784;20.604;2023-06-19T19:55:40;19.48;;;15.00;;
43990;SDS011;29654;50.784;20.604;2023-06-19T20:00:43;18.70;;;15.45;;
43990;SDS011;29654;50.784;20.604;2023-06-19T20:05:49;14.48;;;12.18;;
43990;SDS011;29654;50.784;20.604;2023-06-19T20:10:53;14.35;;;12.02;;
43990;SDS011;29654;50.784;20.604;2023-06-19T20:15:56;10.95;;;9.85;;
43990;SDS011;29654;50.784;20.604;2023-06-19T20:20:58;10.05;;;9.15;;
43990;SDS011;29654;50.784;20.604;2023-06-19T20:26:02;11.13;;;9.95;;
43990;SDS011;29654;50.784;20.604;2023-06-19T20:31:04;10.45;;;9.38;;
43990;SDS011;29654;50.784;20.604;2023-06-19T20:36:07;12.48;;;10.63;;
43990;SDS011;29654;50.784;20.604;2023-06-19T20:41:11;13.35;;;11.82;;
43990;SDS011;29654;50.784;20.604;2023-06-19T20:46:16;17.30;;;13.43;;
43990;SDS011;29654;50.784;20.604;2023-06-19T20:51:19;19.90;;;14.48;;
43990;SDS011;29654;50.784;20.604;2023-06-19T20:56:23;22.17;;;16.27;;
43990;SDS011;29654;50.784;20.604;2023-06-19T21:01:26;28.63;;;19.35;;
43990;SDS011;29654;50.784;20.604;2023-06-19T21:06:29;34.40;;;23.10;;
43990;SDS011;29654;50.784;20.604;2023-06-19T21:11:34;21.20;;;15.63;;
43990;SDS011;29654;50.784;20.604;2023-06-19T21:16:40;16.27;;;13.02;;
43990;SDS011;29654;50.784;20.604;2023-06-19T21:21:43;21.20;;;15.88;;
43990;SDS011;29654;50.784;20.604;2023-06-19T21:26:47;15.90;;;12.23;;
43990;SDS011;29654;50.784;20.604;2023-06-19T21:31:49;9.90;;;8.93;;
43990;SDS011;29654;50.784;20.604;2023-06-19T21:36:52;8.52;;;7.78;;
43990;SDS011;29654;50.784;20.604;2023-06-19T21:41:56;8.95;;;8.05;;
43990;SDS011;29654;50.784;20.604;2023-06-19T21:46:58;7.97;;;7.32;;
43990;SDS011;29654;50.784;20.604;2023-06-19T21:52:01;7.72;;;7.03;;
43990;SDS011;29654;50.784;20.604;2023-06-19T21:57:05;8.40;;;7.70;;
43990;SDS011;29654;50.784;20.604;2023-06-19T22:02:08;10.05;;;9.13;;
43990;SDS011;29654;50.784;20.604;2023-06-19T22:07:11;13.82;;;12.38;;
43990;SDS011;29654;50.784;20.604;2023-06-19T22:12:16;15.18;;;13.57;;
43990;SDS011;29654;50.784;20.604;2023-06-19T22:17:18;16.70;;;14.80;;
43990;SDS011;29654;50.784;20.604;2023-06-19T22:22:21;20.77;;;16.25;;
43990;SDS011;29654;50.784;20.604;2023-06-19T22:27:25;17.88;;;15.68;;
43990;SDS011;29654;50.784;20.604;2023-06-19T22:32:27;16.65;;;14.65;;
43990;SDS011;29654;50.784;20.604;2023-06-19T22:37:30;13.80;;;12.38;;
43990;SDS011;29654;50.784;20.604;2023-06-19T22:42:33;13.50;;;12.20;;
43990;SDS011;29654;50.784;20.604;2023-06-19T22:47:38;12.65;;;11.43;;
43990;SDS011;29654;50.784;20.604;2023-06-19T22:52:40;12.80;;;11.35;;
43990;SDS011;29654;50.784;20.604;2023-06-19T22:57:44;15.18;;;13.13;;
43990;SDS011;29654;50.784;20.604;2023-06-19T23:02:47;11.35;;;10.35;;
43990;SDS011;29654;50.784;20.604;2023-06-19T23:07:50;14.60;;;12.30;;
43990;SDS011;29654;50.784;20.604;2023-06-19T23:12:54;11.63;;;10.43;;
43990;SDS011;29654;50.784;20.604;2023-06-19T23:17:57;11.98;;;10.45;;
43990;SDS011;29654;50.784;20.604;2023-06-19T23:23:00;9.73;;;8.73;;
43990;SDS011;29654;50.784;20.604;2023-06-19T23:28:06;10.43;;;9.40;;
43990;SDS011;29654;50.784;20.604;2023-06-19T23:33:09;11.98;;;10.85;;
43990;SDS011;29654;50.784;20.604;2023-06-19T23:38:11;9.90;;;8.63;;
43990;SDS011;29654;50.784;20.604;2023-06-19T23:43:15;10.40;;;9.45;;
43990;SDS011;29654;50.784;20.604;2023-06-19T23:48:18;10.32;;;9.32;;
43990;SDS011;29654;50.784;20.604;2023-06-19T23:53:20;9.93;;;8.90;;
43990;SDS011;29654;50.784;20.604;2023-06-19T23:58:24;10.70;;;9.63;;
